createdAt,value
2018-05-29T00:01:02.304Z,23.18
2018-05-29T00:04:05.572Z,23.19
2018-05-29T00:07:07.713Z,23.14
2018-05-29T00:10:09.819Z,23.08
2018-05-29T00:13:11.897Z,23.04
2018-05-29T00:16:14.025Z,22.87
2018-05-29T00:19:16.007Z,22.69
2018-05-29T00:22:18.092Z,22.52
2018-05-29T00:25:20.166Z,22.36
2018-05-29T00:28:22.238Z,22.30
2018-05-29T00:31:24.324Z,22.27
2018-05-29T00:34:26.387Z,22.34
2018-05-29T00:37:28.462Z,22.38
2018-05-29T00:40:32.553Z,22.30
2018-05-29T00:43:35.721Z,22.21
2018-05-29T00:46:37.759Z,22.03
2018-05-29T00:49:39.989Z,22.00
2018-05-29T00:52:42.105Z,22.10
2018-05-29T00:55:44.270Z,22.06
2018-05-29T00:58:46.431Z,22.11
2018-05-29T01:01:48.443Z,22.18
2018-05-29T01:04:50.645Z,22.19
2018-05-29T01:08:05.161Z,22.27
2018-05-29T01:11:07.325Z,22.36
2018-05-29T01:14:09.380Z,22.40
2018-05-29T01:17:11.533Z,22.41
2018-05-29T01:20:13.601Z,22.38
2018-05-29T01:23:15.664Z,22.29
2018-05-29T01:26:17.748Z,22.21
2018-05-29T01:29:19.810Z,22.22
2018-05-29T01:32:21.863Z,22.20
2018-05-29T01:35:24.228Z,22.19
2018-05-29T01:38:26.308Z,22.15
2018-05-29T01:41:28.408Z,22.08
2018-05-29T01:44:30.555Z,22.00
2018-05-29T01:47:32.635Z,21.75
2018-05-29T01:50:35.811Z,21.61
2018-05-29T01:53:37.998Z,21.60
2018-05-29T01:56:40.071Z,21.66
2018-05-29T01:59:42.133Z,21.79
2018-05-29T02:02:44.188Z,21.84
2018-05-29T02:05:46.255Z,21.72
2018-05-29T02:08:48.318Z,21.59
2018-05-29T02:11:50.247Z,21.53
2018-05-29T02:14:53.278Z,21.55
2018-05-29T02:17:55.421Z,21.62
2018-05-29T02:20:57.460Z,21.50
2018-05-29T02:23:59.523Z,21.52
2018-05-29T02:27:01.693Z,21.56
2018-05-29T02:30:04.742Z,21.57
2018-05-29T02:33:06.982Z,21.60
2018-05-29T02:36:09.405Z,21.59
2018-05-29T02:39:11.528Z,21.59
2018-05-29T02:42:13.659Z,21.64
2018-05-29T02:45:15.752Z,21.53
2018-05-29T02:48:17.776Z,21.44
2018-05-29T02:51:19.852Z,21.48
2018-05-29T02:54:21.930Z,21.48
2018-05-29T02:57:24.094Z,21.43
2018-05-29T03:00:26.156Z,21.40
2018-05-29T03:03:28.239Z,21.37
2018-05-29T03:06:30.332Z,21.30
2018-05-29T03:09:32.611Z,21.32
2018-05-29T03:12:35.507Z,21.31
2018-05-29T03:15:37.541Z,21.25
2018-05-29T03:18:39.624Z,21.26
2018-05-29T03:21:41.694Z,21.26
2018-05-29T03:24:43.745Z,21.25
2018-05-29T03:27:45.812Z,21.22
2018-05-29T03:30:47.762Z,21.18
2018-05-29T03:33:49.838Z,21.20
2018-05-29T03:36:51.911Z,21.17
2018-05-29T03:39:53.986Z,21.15
2018-05-29T03:42:56.038Z,21.14
2018-05-29T03:46:07.015Z,21.15
2018-05-29T03:49:09.067Z,21.18
2018-05-29T03:52:11.032Z,21.21
2018-05-29T03:55:13.100Z,21.23
2018-05-29T03:58:15.244Z,21.13
2018-05-29T04:01:17.303Z,21.17
2018-05-29T04:04:19.449Z,21.18
2018-05-29T04:07:21.478Z,21.13
2018-05-29T04:10:23.594Z,21.07
2018-05-29T04:13:25.662Z,21.02
2018-05-29T04:16:27.677Z,20.95
2018-05-29T04:19:29.784Z,20.91
2018-05-29T04:22:31.864Z,20.82
2018-05-29T04:25:33.894Z,20.87
2018-05-29T04:28:36.709Z,20.77
2018-05-29T04:31:38.764Z,20.69
2018-05-29T04:34:40.854Z,20.77
2018-05-29T04:37:43.875Z,20.66
2018-05-29T04:40:45.922Z,20.70
2018-05-29T04:43:48.065Z,20.74
2018-05-29T04:46:50.125Z,20.75
2018-05-29T04:49:52.201Z,20.76
2018-05-29T04:52:54.395Z,20.83
2018-05-29T04:55:56.473Z,20.82
2018-05-29T04:58:58.564Z,20.86
2018-05-29T05:02:00.587Z,20.88
2018-05-29T05:05:02.691Z,21.02
2018-05-29T05:08:05.336Z,21.03
2018-05-29T05:11:07.424Z,20.88
2018-05-29T05:14:09.491Z,20.91
2018-05-29T05:17:11.511Z,20.85
2018-05-29T05:20:13.543Z,20.80
2018-05-29T05:23:16.717Z,20.79
2018-05-29T05:26:18.751Z,20.88
2018-05-29T05:29:20.735Z,20.87
2018-05-29T05:32:22.716Z,20.92
2018-05-29T05:35:24.814Z,20.87
2018-05-29T05:38:26.834Z,20.97
2018-05-29T05:41:30.013Z,20.98
2018-05-29T05:44:32.025Z,21.13
2018-05-29T05:47:34.096Z,21.17
2018-05-29T05:50:36.154Z,21.25
2018-05-29T05:53:38.224Z,21.42
2018-05-29T05:56:40.241Z,21.50
2018-05-29T05:59:42.232Z,21.60
2018-05-29T06:02:44.279Z,21.68
2018-05-29T06:05:46.271Z,21.72
2018-05-29T06:08:49.285Z,21.66
2018-05-29T06:11:51.255Z,21.82
2018-05-29T06:14:53.313Z,21.84
2018-05-29T06:17:55.291Z,21.84
2018-05-29T06:20:57.325Z,22.00
2018-05-29T06:23:59.322Z,22.15
2018-05-29T06:27:01.368Z,22.17
2018-05-29T06:30:03.385Z,22.16
2018-05-29T06:33:05.412Z,22.29
2018-05-29T06:36:07.492Z,22.49
2018-05-29T06:39:09.568Z,22.63
2018-05-29T06:42:11.711Z,22.57
2018-05-29T06:45:14.716Z,22.70
2018-05-29T06:48:16.657Z,22.75
2018-05-29T06:51:18.715Z,22.74
2018-05-29T06:54:22.005Z,22.84
2018-05-29T06:57:24.028Z,22.78
2018-05-29T07:00:26.088Z,22.82
2018-05-29T07:03:28.120Z,22.85
2018-05-29T07:06:30.175Z,22.92
2018-05-29T07:09:32.232Z,22.98
2018-05-29T07:12:34.241Z,22.97
2018-05-29T07:15:36.258Z,23.17
2018-05-29T07:18:39.370Z,23.31
2018-05-29T07:21:41.424Z,23.38
2018-05-29T07:24:43.393Z,23.31
2018-05-29T07:27:45.377Z,23.17
2018-05-29T07:30:47.448Z,23.01
2018-05-29T07:33:50.432Z,22.97
2018-05-29T07:36:52.416Z,22.95
2018-05-29T07:39:54.521Z,23.08
2018-05-29T07:42:56.544Z,23.17
2018-05-29T07:45:58.528Z,23.10
2018-05-29T07:49:00.500Z,23.10
2018-05-29T07:52:02.512Z,23.04
2018-05-29T07:55:04.443Z,23.17
2018-05-29T07:58:06.528Z,23.38
2018-05-29T08:01:08.591Z,23.48
2018-05-29T08:04:10.620Z,23.34
2018-05-29T08:07:12.615Z,23.30
2018-05-29T08:10:14.638Z,23.37
2018-05-29T08:13:16.635Z,23.37
2018-05-29T08:16:18.632Z,23.50
2018-05-29T08:19:21.873Z,23.59
2018-05-29T08:22:23.863Z,23.82
2018-05-29T08:25:25.845Z,23.77
2018-05-29T08:28:27.811Z,23.92
2018-05-29T08:31:29.850Z,24.21
2018-05-29T08:34:31.958Z,24.17
2018-05-29T08:37:33.915Z,24.35
2018-05-29T08:40:35.861Z,24.53
2018-05-29T08:43:37.865Z,24.75
2018-05-29T08:46:39.820Z,24.69
2018-05-29T08:49:41.863Z,24.68
2018-05-29T08:52:43.861Z,24.48
2018-05-29T08:55:45.903Z,24.51
2018-05-29T08:58:47.859Z,24.54
2018-05-29T09:01:50.444Z,24.42
2018-05-29T09:04:52.940Z,24.47
2018-05-29T09:07:54.875Z,24.41
2018-05-29T09:10:56.834Z,24.54
2018-05-29T09:13:58.836Z,24.35
2018-05-29T09:17:00.822Z,24.55
2018-05-29T09:20:02.960Z,24.45
2018-05-29T09:23:04.904Z,24.38
2018-05-29T09:26:06.953Z,24.19
2018-05-29T09:29:09.033Z,23.90
2018-05-29T09:32:10.970Z,23.96
2018-05-29T09:35:13.021Z,24.22
2018-05-29T09:38:15.064Z,24.52
2018-05-29T09:41:17.152Z,24.72
2018-05-29T09:44:19.199Z,24.44
2018-05-29T09:47:21.224Z,24.41
2018-05-29T09:50:23.219Z,24.39
2018-05-29T09:53:25.218Z,24.31
2018-05-29T09:56:27.192Z,24.49
2018-05-29T09:59:29.235Z,24.65
2018-05-29T10:02:31.286Z,24.72
2018-05-29T10:05:33.312Z,24.67
2018-05-29T10:08:35.348Z,24.36
2018-05-29T10:11:37.299Z,24.36
2018-05-29T10:14:39.310Z,24.42
2018-05-29T10:17:41.386Z,24.35
2018-05-29T10:20:43.452Z,24.46
2018-05-29T10:23:45.520Z,24.53
2018-05-29T10:26:47.544Z,24.79
2018-05-29T10:29:49.561Z,24.90
2018-05-29T10:32:51.613Z,25.34
2018-05-29T10:35:55.749Z,25.50
2018-05-29T10:38:58.713Z,25.45
2018-05-29T10:42:01.791Z,25.39
2018-05-29T10:45:03.824Z,25.02
2018-05-29T10:48:05.860Z,24.81
2018-05-29T10:51:08.028Z,24.64
2018-05-29T10:54:11.004Z,24.58
2018-05-29T10:57:13.104Z,24.48
2018-05-29T11:00:15.213Z,24.46
2018-05-29T11:03:17.223Z,24.42
2018-05-29T11:06:19.397Z,24.40
2018-05-29T11:09:22.363Z,24.54
2018-05-29T11:12:24.350Z,24.49
2018-05-29T11:15:27.470Z,24.43
2018-05-29T11:18:29.517Z,24.46
2018-05-29T11:21:31.598Z,24.43
2018-05-29T11:24:33.615Z,24.28
2018-05-29T11:27:35.716Z,24.27
2018-05-29T11:30:37.813Z,24.34
2018-05-29T11:33:39.899Z,24.31
2018-05-29T11:36:42.184Z,24.36
2018-05-29T11:39:44.195Z,24.29
2018-05-29T11:42:46.300Z,24.10
2018-05-29T11:45:48.326Z,24.10
2018-05-29T11:48:50.350Z,24.18
2018-05-29T11:51:52.355Z,24.28
2018-05-29T11:54:54.419Z,24.29
2018-05-29T11:57:57.511Z,24.32
2018-05-29T12:00:59.510Z,24.27
2018-05-29T12:04:01.575Z,24.35
2018-05-29T12:07:03.660Z,24.31
2018-05-29T12:10:05.757Z,24.31
2018-05-29T12:13:07.766Z,24.36
2018-05-29T12:16:09.839Z,24.35
2018-05-29T12:19:12.834Z,24.49
2018-05-29T12:22:15.860Z,24.53
2018-05-29T12:25:17.781Z,24.59
2018-05-29T12:28:19.849Z,24.57
2018-05-29T12:31:21.946Z,24.67
2018-05-29T12:34:24.251Z,24.61
2018-05-29T12:37:27.620Z,24.54
2018-05-29T12:40:29.677Z,24.62
2018-05-29T12:43:32.745Z,24.56
2018-05-29T12:46:34.694Z,24.65
2018-05-29T12:49:36.686Z,24.67
2018-05-29T12:52:38.738Z,24.63
2018-05-29T12:55:40.780Z,24.59
2018-05-29T12:58:42.827Z,24.71
2018-05-29T13:01:44.900Z,24.80
2018-05-29T13:04:47.973Z,24.89
2018-05-29T13:07:50.180Z,24.91
2018-05-29T13:10:52.195Z,24.93
2018-05-29T13:13:54.342Z,24.97
2018-05-29T13:16:56.436Z,25.16
2018-05-29T13:19:59.443Z,25.27
2018-05-29T13:23:01.510Z,25.48
2018-05-29T13:26:03.608Z,25.49
2018-05-29T13:29:05.632Z,25.45
2018-05-29T13:32:08.637Z,25.56
2018-05-29T13:35:10.739Z,25.38
2018-05-29T13:38:12.806Z,25.42
2018-05-29T13:41:14.984Z,25.33
2018-05-29T13:44:18.043Z,25.12
2018-05-29T13:47:20.051Z,24.95
2018-05-29T13:50:22.072Z,24.81
2018-05-29T13:53:24.100Z,24.73
2018-05-29T13:56:27.256Z,24.72
2018-05-29T13:59:29.264Z,24.80
2018-05-29T14:02:31.260Z,24.87
2018-05-29T14:05:33.307Z,24.79
2018-05-29T14:08:35.309Z,24.83
2018-05-29T14:11:38.440Z,24.97
2018-05-29T14:14:40.457Z,25.11
2018-05-29T14:17:42.513Z,25.23
2018-05-29T14:20:44.602Z,25.51
2018-05-29T14:23:46.642Z,25.33
2018-05-29T14:26:48.645Z,25.31
2018-05-29T14:29:50.699Z,25.33
2018-05-29T14:32:52.806Z,25.25
2018-05-29T14:35:54.855Z,25.33
2018-05-29T14:38:57.543Z,25.11
2018-05-29T14:42:00.580Z,25.15
2018-05-29T14:45:02.607Z,25.21
2018-05-29T14:48:05.777Z,25.12
2018-05-29T14:51:08.009Z,25.07
2018-05-29T14:54:10.055Z,25.14
2018-05-29T14:57:12.325Z,24.99
2018-05-29T15:00:14.394Z,24.81
2018-05-29T15:03:16.445Z,24.87
2018-05-29T15:06:18.463Z,24.90
2018-05-29T15:09:20.422Z,24.72
2018-05-29T15:12:22.431Z,24.35
2018-05-29T15:15:25.535Z,24.35
2018-05-29T15:18:35.940Z,24.35
2018-05-29T15:26:40.721Z,24.19
2018-05-29T15:29:58.015Z,24.24
2018-05-29T15:33:12.610Z,24.36
2018-05-29T15:36:14.720Z,24.20
2018-05-29T15:39:16.790Z,24.26
2018-05-29T15:42:18.917Z,24.16
2018-05-29T15:45:20.915Z,24.16
2018-05-29T15:48:22.984Z,24.19
2018-05-29T15:51:25.092Z,24.34
2018-05-29T15:54:27.840Z,24.38
2018-05-29T15:57:29.898Z,24.35
2018-05-29T16:00:31.968Z,24.38
2018-05-29T16:03:34.064Z,24.16
2018-05-29T16:06:36.353Z,24.35
2018-05-29T16:09:38.348Z,24.30
2018-05-29T16:12:40.530Z,24.23
2018-05-29T16:15:42.600Z,24.18
2018-05-29T16:18:44.697Z,24.11
2018-05-29T16:21:46.848Z,24.11
2018-05-29T16:24:48.922Z,24.17
2018-05-29T16:27:51.996Z,24.20
2018-05-29T16:30:54.248Z,24.32
2018-05-29T16:33:56.239Z,24.47
2018-05-29T16:36:58.644Z,24.42
2018-05-29T16:40:00.693Z,24.45
2018-05-29T16:43:02.802Z,24.48
2018-05-29T16:46:05.863Z,24.61
2018-05-29T16:49:07.949Z,24.80
2018-05-29T16:52:10.107Z,25.03
2018-05-29T16:55:12.081Z,25.06
2018-05-29T16:58:14.177Z,25.22
2018-05-29T17:01:16.268Z,25.28
2018-05-29T17:04:19.395Z,25.45
2018-05-29T17:07:21.438Z,25.49
2018-05-29T17:10:23.556Z,25.59
2018-05-29T17:13:25.671Z,25.65
2018-05-29T17:16:28.503Z,25.45
2018-05-29T17:19:30.657Z,25.33
2018-05-29T17:22:32.819Z,25.25
2018-05-29T17:25:34.883Z,25.22
2018-05-29T17:28:36.924Z,25.01
2018-05-29T17:31:38.912Z,24.96
2018-05-29T17:34:41.074Z,24.98
2018-05-29T17:37:43.162Z,24.80
2018-05-29T17:40:45.279Z,24.76
2018-05-29T17:43:47.300Z,24.77
2018-05-29T17:46:49.556Z,24.78
2018-05-29T17:49:51.660Z,24.69
2018-05-29T17:52:53.708Z,24.59
2018-05-29T17:55:55.756Z,24.54
2018-05-29T17:58:58.788Z,24.57
2018-05-29T18:02:00.956Z,24.52
2018-05-29T18:05:03.141Z,24.50
2018-05-29T18:08:05.397Z,24.58
2018-05-29T18:11:07.480Z,24.66
2018-05-29T18:14:09.535Z,24.67
2018-05-29T18:17:11.579Z,24.71
2018-05-29T18:20:13.532Z,24.69
2018-05-29T18:23:15.644Z,24.63
2018-05-29T18:26:19.848Z,24.51
2018-05-29T18:29:21.903Z,24.39
2018-05-29T18:32:25.030Z,24.34
2018-05-29T18:35:27.787Z,24.41
2018-05-29T18:38:29.872Z,24.35
2018-05-29T18:41:31.960Z,24.38
2018-05-29T18:44:35.133Z,24.41
2018-05-29T18:47:37.186Z,24.39
2018-05-29T18:50:39.243Z,24.41
2018-05-29T18:53:41.478Z,24.38
2018-05-29T18:56:43.523Z,24.25
2018-05-29T18:59:45.624Z,24.15
2018-05-29T19:02:47.763Z,24.11
2018-05-29T19:05:49.762Z,24.01
2018-05-29T19:08:51.796Z,24.03
2018-05-29T19:11:53.962Z,24.05
2018-05-29T19:14:56.035Z,24.07
2018-05-29T19:17:59.140Z,24.06
2018-05-29T19:21:01.373Z,24.07
2018-05-29T19:24:03.513Z,24.06
2018-05-29T19:27:05.657Z,24.02
2018-05-29T19:30:07.754Z,23.98
2018-05-29T19:33:09.864Z,23.78
2018-05-29T19:36:11.807Z,23.69
2018-05-29T19:39:13.866Z,23.63
2018-05-29T19:42:15.951Z,23.54
2018-05-29T19:45:18.011Z,23.41
2018-05-29T19:48:20.092Z,23.32
2018-05-29T19:51:22.188Z,23.31
2018-05-29T19:54:24.242Z,23.31
2018-05-29T19:57:26.325Z,23.21
2018-05-29T20:00:29.357Z,23.08
2018-05-29T20:03:31.593Z,22.97
2018-05-29T20:06:33.539Z,22.94
2018-05-29T20:09:35.608Z,22.88
2018-05-29T20:12:37.675Z,22.81
2018-05-29T20:15:39.756Z,22.77
2018-05-29T20:18:42.852Z,22.73
2018-05-29T20:21:45.179Z,22.69
2018-05-29T20:24:47.259Z,22.63
2018-05-29T20:27:49.363Z,22.58
2018-05-29T20:30:51.416Z,22.57
2018-05-29T20:33:53.491Z,22.52
2018-05-29T20:36:55.596Z,22.50
2018-05-29T20:39:58.064Z,22.41
2018-05-29T20:43:01.151Z,22.30
2018-05-29T20:46:03.230Z,22.24
2018-05-29T20:49:05.370Z,22.18
2018-05-29T20:52:07.455Z,22.23
2018-05-29T20:55:09.616Z,22.25
2018-05-29T20:58:11.671Z,22.21
2018-05-29T21:01:13.744Z,22.11
2018-05-29T21:04:15.830Z,21.96
2018-05-29T21:07:19.946Z,21.94
2018-05-29T21:10:22.020Z,21.95
2018-05-29T21:13:25.073Z,21.85
2018-05-29T21:16:29.720Z,21.69
2018-05-29T21:19:32.833Z,21.56
2018-05-29T21:22:35.892Z,21.57
2018-05-29T21:25:37.868Z,21.53
2018-05-29T21:28:39.915Z,21.36
2018-05-29T21:31:41.989Z,21.37
2018-05-29T21:34:44.072Z,21.46
2018-05-29T21:37:46.141Z,21.51
2018-05-29T21:40:48.222Z,21.54
2018-05-29T21:43:50.347Z,21.60
2018-05-29T21:46:52.432Z,21.67
2018-05-29T21:49:54.531Z,21.67
2018-05-29T21:52:56.591Z,21.67
2018-05-29T21:55:59.266Z,21.65
2018-05-29T21:59:01.344Z,21.62
2018-05-29T22:02:03.607Z,21.57
2018-05-29T22:05:05.710Z,21.48
2018-05-29T22:08:07.885Z,21.41
2018-05-29T22:11:10.929Z,21.29
2018-05-29T22:14:14.034Z,21.26
2018-05-29T22:17:16.087Z,21.22
2018-05-29T22:20:18.180Z,21.16
2018-05-29T22:23:20.931Z,21.04
2018-05-29T22:26:22.924Z,20.86
2018-05-29T22:29:24.991Z,20.73
2018-05-29T22:32:28.632Z,20.76
2018-05-29T22:35:30.592Z,20.80
2018-05-29T22:38:33.797Z,20.90
2018-05-29T22:41:35.807Z,20.94
2018-05-29T22:44:37.784Z,20.93
2018-05-29T22:47:39.886Z,20.87
2018-05-29T22:50:42.936Z,20.84
2018-05-29T22:53:46.545Z,20.80
2018-05-29T22:56:48.632Z,20.68
2018-05-29T22:59:50.687Z,20.64
2018-05-29T23:02:52.765Z,20.57
2018-05-29T23:05:54.823Z,20.48
2018-05-29T23:08:56.935Z,20.44
2018-05-29T23:11:59.999Z,20.39
2018-05-29T23:15:03.952Z,20.43
2018-05-29T23:18:06.070Z,20.41
2018-05-29T23:21:08.844Z,20.40
2018-05-29T23:24:10.947Z,20.36
2018-05-29T23:27:12.982Z,20.34
2018-05-29T23:30:15.084Z,20.35
2018-05-29T23:33:17.167Z,20.31
2018-05-29T23:36:19.288Z,20.25
2018-05-29T23:39:22.284Z,20.23
2018-05-29T23:42:24.381Z,20.16
2018-05-29T23:45:26.440Z,20.11
2018-05-29T23:48:29.236Z,20.07
2018-05-29T23:51:31.279Z,20.00
2018-05-29T23:54:33.373Z,19.84
2018-05-29T23:57:53.722Z,19.82
